sensor_id;sensor_type;location;lat;lon;timestamp;pressure;altitude;pressure_sealevel;temperature;humidity
62055;BME280;48653;51.742;-1.256;2023-10-31T00:03:45;99115.65;;;7.45;49.11
62055;BME280;48653;51.742;-1.256;2023-10-31T00:06:10;99112.71;;;8.31;48.23
62055;BME280;48653;51.742;-1.256;2023-10-31T00:08:35;99119.44;;;8.29;48.98
62055;BME280;48653;51.742;-1.256;2023-10-31T00:11:01;99118.30;;;8.01;49.36
62055;BME280;48653;51.742;-1.256;2023-10-31T00:13:27;99123.33;;;8.04;49.84
62055;BME280;48653;51.742;-1.256;2023-10-31T00:15:52;99123.43;;;7.77;50.34
62055;BME280;48653;51.742;-1.256;2023-10-31T00:18:18;99120.38;;;7.71;49.89
62055;BME280;48653;51.742;-1.256;2023-10-31T00:20:44;99122.02;;;7.99;51.16
62055;BME280;48653;51.742;-1.256;2023-10-31T00:23:09;99121.60;;;7.79;51.21
62055;BME280;48653;51.742;-1.256;2023-10-31T00:25:35;99124.39;;;8.25;50.93
62055;BME280;48653;51.742;-1.256;2023-10-31T00:28:00;99124.67;;;7.72;51.19
62055;BME280;48653;51.742;-1.256;2023-10-31T00:30:26;99124.44;;;7.95;51.10
62055;BME280;48653;51.742;-1.256;2023-10-31T00:32:52;99125.97;;;7.90;51.17
62055;BME280;48653;51.742;-1.256;2023-10-31T00:35:17;99124.50;;;7.38;51.20
62055;BME280;48653;51.742;-1.256;2023-10-31T00:37:42;99120.50;;;7.72;51.00
62055;BME280;48653;51.742;-1.256;2023-10-31T00:40:08;99117.46;;;7.24;51.07
62055;BME280;48653;51.742;-1.256;2023-10-31T00:42:33;99117.52;;;7.90;51.12
62055;BME280;48653;51.742;-1.256;2023-10-31T00:44:59;99116.40;;;7.72;50.62
62055;BME280;48653;51.742;-1.256;2023-10-31T00:47:24;99115.31;;;7.57;51.91
62055;BME280;48653;51.742;-1.256;2023-10-31T00:49:49;99113.10;;;7.37;51.70
62055;BME280;48653;51.742;-1.256;2023-10-31T00:52:14;99113.14;;;8.07;50.94
62055;BME280;48653;51.742;-1.256;2023-10-31T00:54:40;99110.69;;;7.84;51.02
62055;BME280;48653;51.742;-1.256;2023-10-31T00:57:06;99107.86;;;7.59;50.88
62055;BME280;48653;51.742;-1.256;2023-10-31T00:59:31;99107.20;;;7.75;51.05
62055;BME280;48653;51.742;-1.256;2023-10-31T01:01:57;99104.18;;;7.44;51.18
62055;BME280;48653;51.742;-1.256;2023-10-31T01:04:22;99106.16;;;7.63;51.29
62055;BME280;48653;51.742;-1.256;2023-10-31T01:06:47;99106.09;;;7.30;51.38
62055;BME280;48653;51.742;-1.256;2023-10-31T01:09:13;99111.02;;;7.67;50.67
62055;BME280;48653;51.742;-1.256;2023-10-31T01:11:38;99114.22;;;7.60;50.14
62055;BME280;48653;51.742;-1.256;2023-10-31T01:14:04;99112.67;;;7.59;50.43
62055;BME280;48653;51.742;-1.256;2023-10-31T01:16:29;99109.08;;;7.70;50.60
62055;BME280;48653;51.742;-1.256;2023-10-31T01:18:54;99113.33;;;8.07;50.85
62055;BME280;48653;51.742;-1.256;2023-10-31T01:21:19;99113.04;;;7.83;50.98
62055;BME280;48653;51.742;-1.256;2023-10-31T01:23:45;99117.16;;;7.76;51.07
62055;BME280;48653;51.742;-1.256;2023-10-31T01:26:10;99116.64;;;7.63;51.99
62055;BME280;48653;51.742;-1.256;2023-10-31T01:28:36;99116.69;;;7.76;50.70
62055;BME280;48653;51.742;-1.256;2023-10-31T01:31:01;99114.87;;;7.81;51.38
62055;BME280;48653;51.742;-1.256;2023-10-31T01:33:27;99113.67;;;7.86;51.78
62055;BME280;48653;51.742;-1.256;2023-10-31T01:35:52;99115.05;;;7.79;52.03
62055;BME280;48653;51.742;-1.256;2023-10-31T01:38:17;99115.03;;;7.90;52.21
62055;BME280;48653;51.742;-1.256;2023-10-31T01:40:43;99112.76;;;8.22;51.76
62055;BME280;48653;51.742;-1.256;2023-10-31T01:43:08;99113.08;;;7.85;52.08
62055;BME280;48653;51.742;-1.256;2023-10-31T01:45:34;99114.68;;;7.93;52.55
62055;BME280;48653;51.742;-1.256;2023-10-31T01:47:59;99114.95;;;8.08;52.80
62055;BME280;48653;51.742;-1.256;2023-10-31T01:50:25;99118.41;;;8.06;53.01
62055;BME280;48653;51.742;-1.256;2023-10-31T01:52:50;99117.59;;;8.03;52.99
62055;BME280;48653;51.742;-1.256;2023-10-31T01:55:15;99117.51;;;8.30;52.43
62055;BME280;48653;51.742;-1.256;2023-10-31T01:57:40;99121.51;;;8.28;53.16
62055;BME280;48653;51.742;-1.256;2023-10-31T02:00:07;99121.17;;;8.43;53.28
62055;BME280;48653;51.742;-1.256;2023-10-31T02:02:33;99121.25;;;8.79;53.95
62055;BME280;48653;51.742;-1.256;2023-10-31T02:04:57;99121.49;;;8.21;53.65
62055;BME280;48653;51.742;-1.256;2023-10-31T02:07:22;99126.94;;;8.59;53.62
62055;BME280;48653;51.742;-1.256;2023-10-31T02:09:47;99127.22;;;8.78;54.08
62055;BME280;48653;51.742;-1.256;2023-10-31T02:14:39;99125.62;;;8.66;52.85
62055;BME280;48653;51.742;-1.256;2023-10-31T02:17:04;99122.45;;;9.14;52.16
62055;BME280;48653;51.742;-1.256;2023-10-31T02:19:29;99127.21;;;9.03;52.49
62055;BME280;48653;51.742;-1.256;2023-10-31T02:21:54;99128.26;;;8.27;52.36
62055;BME280;48653;51.742;-1.256;2023-10-31T02:24:20;99127.85;;;8.49;52.16
62055;BME280;48653;51.742;-1.256;2023-10-31T02:26:45;99126.42;;;8.81;51.50
62055;BME280;48653;51.742;-1.256;2023-10-31T02:29:10;99122.16;;;9.06;51.27
62055;BME280;48653;51.742;-1.256;2023-10-31T02:31:36;99120.49;;;8.65;51.28
62055;BME280;48653;51.742;-1.256;2023-10-31T02:34:01;99117.41;;;9.13;51.01
62055;BME280;48653;51.742;-1.256;2023-10-31T02:36:27;99116.87;;;9.19;50.53
62055;BME280;48653;51.742;-1.256;2023-10-31T02:38:52;99116.22;;;9.11;51.91
62055;BME280;48653;51.742;-1.256;2023-10-31T02:41:17;99115.71;;;9.30;52.13
62055;BME280;48653;51.742;-1.256;2023-10-31T02:43:42;99115.04;;;8.94;52.49
62055;BME280;48653;51.742;-1.256;2023-10-31T02:46:08;99112.26;;;8.84;51.53
62055;BME280;48653;51.742;-1.256;2023-10-31T02:48:33;99111.45;;;9.04;51.99
62055;BME280;48653;51.742;-1.256;2023-10-31T02:50:58;99110.55;;;9.04;52.01
62055;BME280;48653;51.742;-1.256;2023-10-31T02:53:23;99110.34;;;9.28;51.20
62055;BME280;48653;51.742;-1.256;2023-10-31T02:55:49;99109.66;;;9.15;53.31
62055;BME280;48653;51.742;-1.256;2023-10-31T02:58:15;99110.32;;;8.84;53.58
62055;BME280;48653;51.742;-1.256;2023-10-31T03:00:40;99104.32;;;9.36;51.91
62055;BME280;48653;51.742;-1.256;2023-10-31T03:03:05;99103.12;;;9.53;51.52
62055;BME280;48653;51.742;-1.256;2023-10-31T03:05:30;99111.57;;;9.16;52.88
62055;BME280;48653;51.742;-1.256;2023-10-31T03:07:56;99112.64;;;9.31;53.25
62055;BME280;48653;51.742;-1.256;2023-10-31T03:10:21;99110.10;;;9.41;52.71
62055;BME280;48653;51.742;-1.256;2023-10-31T03:12:46;99112.10;;;9.46;53.20
62055;BME280;48653;51.742;-1.256;2023-10-31T03:15:11;99114.78;;;9.28;53.51
62055;BME280;48653;51.742;-1.256;2023-10-31T03:17:36;99113.44;;;9.32;53.96
62055;BME280;48653;51.742;-1.256;2023-10-31T03:20:02;99118.31;;;8.74;56.45
62055;BME280;48653;51.742;-1.256;2023-10-31T03:22:27;99120.81;;;8.89;56.99
62055;BME280;48653;51.742;-1.256;2023-10-31T03:24:53;99124.96;;;9.03;56.04
62055;BME280;48653;51.742;-1.256;2023-10-31T03:27:18;99122.99;;;8.98;57.09
62055;BME280;48653;51.742;-1.256;2023-10-31T03:29:43;99122.44;;;9.40;56.26
62055;BME280;48653;51.742;-1.256;2023-10-31T03:32:09;99120.94;;;9.44;55.90
62055;BME280;48653;51.742;-1.256;2023-10-31T03:34:34;99118.81;;;8.78;57.27
62055;BME280;48653;51.742;-1.256;2023-10-31T03:37:00;99126.58;;;9.33;55.99
62055;BME280;48653;51.742;-1.256;2023-10-31T03:39:26;99123.46;;;9.45;55.44
62055;BME280;48653;51.742;-1.256;2023-10-31T03:41:51;99124.11;;;9.25;56.89
62055;BME280;48653;51.742;-1.256;2023-10-31T03:44:16;99121.98;;;9.93;54.97
62055;BME280;48653;51.742;-1.256;2023-10-31T03:46:41;99128.81;;;9.81;54.88
62055;BME280;48653;51.742;-1.256;2023-10-31T03:49:07;99127.09;;;9.85;55.12
62055;BME280;48653;51.742;-1.256;2023-10-31T03:51:32;99128.87;;;9.70;56.31
62055;BME280;48653;51.742;-1.256;2023-10-31T03:53:58;99124.52;;;10.36;54.49
62055;BME280;48653;51.742;-1.256;2023-10-31T03:56:23;99128.66;;;9.77;55.96
62055;BME280;48653;51.742;-1.256;2023-10-31T03:58:49;99125.89;;;10.09;55.47
62055;BME280;48653;51.742;-1.256;2023-10-31T04:01:14;99124.62;;;9.69;56.56
62055;BME280;48653;51.742;-1.256;2023-10-31T04:03:40;99117.56;;;9.84;56.19
62055;BME280;48653;51.742;-1.256;2023-10-31T04:06:05;99119.14;;;10.19;55.22
62055;BME280;48653;51.742;-1.256;2023-10-31T04:08:30;99115.09;;;10.55;54.60
62055;BME280;48653;51.742;-1.256;2023-10-31T04:10:56;99122.08;;;9.95;55.09
62055;BME280;48653;51.742;-1.256;2023-10-31T04:13:21;99127.07;;;10.86;53.99
62055;BME280;48653;51.742;-1.256;2023-10-31T04:15:46;99130.44;;;10.03;55.69
62055;BME280;48653;51.742;-1.256;2023-10-31T04:18:12;99130.56;;;9.62;56.42
62055;BME280;48653;51.742;-1.256;2023-10-31T04:20:37;99125.39;;;10.13;55.24
62055;BME280;48653;51.742;-1.256;2023-10-31T04:23:03;99121.40;;;10.26;54.54
62055;BME280;48653;51.742;-1.256;2023-10-31T04:25:29;99120.47;;;10.14;54.89
62055;BME280;48653;51.742;-1.256;2023-10-31T04:27:54;99123.50;;;10.82;53.47
62055;BME280;48653;51.742;-1.256;2023-10-31T04:30:19;99132.19;;;10.13;54.83
62055;BME280;48653;51.742;-1.256;2023-10-31T04:32:45;99130.16;;;10.45;54.26
62055;BME280;48653;51.742;-1.256;2023-10-31T04:35:10;99131.12;;;10.00;54.50
62055;BME280;48653;51.742;-1.256;2023-10-31T04:37:36;99140.97;;;10.11;54.37
62055;BME280;48653;51.742;-1.256;2023-10-31T04:40:01;99140.03;;;10.28;54.20
62055;BME280;48653;51.742;-1.256;2023-10-31T04:42:26;99142.90;;;10.67;54.39
62055;BME280;48653;51.742;-1.256;2023-10-31T04:44:52;99145.48;;;10.42;54.55
62055;BME280;48653;51.742;-1.256;2023-10-31T04:47:17;99140.34;;;10.19;55.38
62055;BME280;48653;51.742;-1.256;2023-10-31T04:49:43;99143.90;;;9.01;58.67
62055;BME280;48653;51.742;-1.256;2023-10-31T04:52:08;99145.14;;;9.60;58.45
62055;BME280;48653;51.742;-1.256;2023-10-31T04:54:33;99149.91;;;8.70;61.22
62055;BME280;48653;51.742;-1.256;2023-10-31T04:56:58;99150.61;;;9.28;59.47
62055;BME280;48653;51.742;-1.256;2023-10-31T04:59:24;99152.65;;;9.49;58.97
62055;BME280;48653;51.742;-1.256;2023-10-31T05:01:50;99154.51;;;9.96;58.07
62055;BME280;48653;51.742;-1.256;2023-10-31T05:04:15;99152.21;;;9.92;57.60
62055;BME280;48653;51.742;-1.256;2023-10-31T05:06:40;99156.96;;;9.48;58.19
62055;BME280;48653;51.742;-1.256;2023-10-31T05:09:05;99154.81;;;9.55;57.99
62055;BME280;48653;51.742;-1.256;2023-10-31T05:11:30;99157.97;;;9.93;57.92
62055;BME280;48653;51.742;-1.256;2023-10-31T05:13:56;99158.64;;;9.75;57.77
62055;BME280;48653;51.742;-1.256;2023-10-31T05:16:22;99158.05;;;9.94;57.08
62055;BME280;48653;51.742;-1.256;2023-10-31T05:18:47;99154.55;;;9.96;56.55
62055;BME280;48653;51.742;-1.256;2023-10-31T05:21:12;99155.93;;;10.13;55.79
62055;BME280;48653;51.742;-1.256;2023-10-31T05:23:38;99157.83;;;10.42;55.06
62055;BME280;48653;51.742;-1.256;2023-10-31T05:26:05;99154.23;;;10.55;55.46
62055;BME280;48653;51.742;-1.256;2023-10-31T05:28:29;99152.41;;;10.32;55.10
62055;BME280;48653;51.742;-1.256;2023-10-31T05:30:54;99151.90;;;10.19;55.37
62055;BME280;48653;51.742;-1.256;2023-10-31T05:33:19;99157.48;;;10.49;54.72
62055;BME280;48653;51.742;-1.256;2023-10-31T05:35:44;99157.94;;;10.55;54.57
62055;BME280;48653;51.742;-1.256;2023-10-31T05:38:10;99160.23;;;10.92;53.82
62055;BME280;48653;51.742;-1.256;2023-10-31T05:40:35;99165.38;;;10.24;54.28
62055;BME280;48653;51.742;-1.256;2023-10-31T05:43:01;99162.70;;;10.23;54.29
62055;BME280;48653;51.742;-1.256;2023-10-31T05:45:26;99163.46;;;10.39;53.94
62055;BME280;48653;51.742;-1.256;2023-10-31T05:47:51;99158.90;;;10.32;54.01
62055;BME280;48653;51.742;-1.256;2023-10-31T05:50:16;99160.06;;;10.43;53.75
62055;BME280;48653;51.742;-1.256;2023-10-31T05:52:42;99160.17;;;10.24;53.74
62055;BME280;48653;51.742;-1.256;2023-10-31T05:55:08;99155.46;;;10.67;53.86
62055;BME280;48653;51.742;-1.256;2023-10-31T05:57:32;99155.06;;;10.31;55.41
62055;BME280;48653;51.742;-1.256;2023-10-31T05:59:58;99161.63;;;9.65;57.18
62055;BME280;48653;51.742;-1.256;2023-10-31T06:02:23;99161.58;;;10.19;56.13
62055;BME280;48653;51.742;-1.256;2023-10-31T06:04:48;99169.64;;;10.06;56.54
62055;BME280;48653;51.742;-1.256;2023-10-31T06:07:13;99165.81;;;10.48;54.43
62055;BME280;48653;51.742;-1.256;2023-10-31T06:09:38;99167.64;;;10.64;53.68
62055;BME280;48653;51.742;-1.256;2023-10-31T06:12:04;99168.28;;;10.58;54.04
62055;BME280;48653;51.742;-1.256;2023-10-31T06:14:29;99165.35;;;10.67;54.96
62055;BME280;48653;51.742;-1.256;2023-10-31T06:16:55;99169.19;;;11.16;54.41
62055;BME280;48653;51.742;-1.256;2023-10-31T06:19:20;99167.11;;;10.22;56.27
62055;BME280;48653;51.742;-1.256;2023-10-31T06:21:46;99176.24;;;9.86;57.18
62055;BME280;48653;51.742;-1.256;2023-10-31T06:24:11;99178.07;;;10.18;56.58
62055;BME280;48653;51.742;-1.256;2023-10-31T06:26:36;99181.34;;;9.83;56.56
62055;BME280;48653;51.742;-1.256;2023-10-31T06:29:01;99179.63;;;10.37;56.16
62055;BME280;48653;51.742;-1.256;2023-10-31T06:31:26;99184.00;;;10.23;56.56
62055;BME280;48653;51.742;-1.256;2023-10-31T06:33:52;99189.93;;;9.82;56.90
62055;BME280;48653;51.742;-1.256;2023-10-31T06:36:17;99191.62;;;9.70;57.03
62055;BME280;48653;51.742;-1.256;2023-10-31T06:38:42;99191.62;;;10.28;55.18
62055;BME280;48653;51.742;-1.256;2023-10-31T06:41:08;99194.90;;;10.45;55.22
62055;BME280;48653;51.742;-1.256;2023-10-31T06:43:33;99196.99;;;10.29;55.23
62055;BME280;48653;51.742;-1.256;2023-10-31T06:45:58;99203.59;;;10.60;54.51
62055;BME280;48653;51.742;-1.256;2023-10-31T06:48:23;99215.77;;;10.75;54.99
62055;BME280;48653;51.742;-1.256;2023-10-31T06:50:49;99216.20;;;10.58;54.23
62055;BME280;48653;51.742;-1.256;2023-10-31T06:53:14;99220.29;;;11.01;53.92
62055;BME280;48653;51.742;-1.256;2023-10-31T06:55:39;99227.38;;;10.91;54.03
62055;BME280;48653;51.742;-1.256;2023-10-31T06:58:04;99233.11;;;10.84;53.41
62055;BME280;48653;51.742;-1.256;2023-10-31T07:00:30;99239.66;;;10.96;53.58
62055;BME280;48653;51.742;-1.256;2023-10-31T07:02:55;99241.46;;;11.86;52.21
62055;BME280;48653;51.742;-1.256;2023-10-31T07:05:20;99247.99;;;11.41;52.58
62055;BME280;48653;51.742;-1.256;2023-10-31T07:07:46;99255.40;;;10.82;53.97
62055;BME280;48653;51.742;-1.256;2023-10-31T07:10:11;99259.44;;;10.92;53.33
62055;BME280;48653;51.742;-1.256;2023-10-31T07:12:36;99262.62;;;10.89;53.71
62055;BME280;48653;51.742;-1.256;2023-10-31T07:15:01;99266.14;;;11.41;52.84
62055;BME280;48653;51.742;-1.256;2023-10-31T07:17:26;99264.76;;;11.20;53.52
62055;BME280;48653;51.742;-1.256;2023-10-31T07:19:51;99267.10;;;11.43;53.64
62055;BME280;48653;51.742;-1.256;2023-10-31T07:22:16;99268.88;;;10.60;54.33
62055;BME280;48653;51.742;-1.256;2023-10-31T07:24:42;99267.59;;;10.98;53.96
62055;BME280;48653;51.742;-1.256;2023-10-31T07:27:08;99270.81;;;10.83;54.79
62055;BME280;48653;51.742;-1.256;2023-10-31T07:29:33;99274.79;;;11.04;53.87
62055;BME280;48653;51.742;-1.256;2023-10-31T07:31:59;99277.98;;;11.01;53.51
62055;BME280;48653;51.742;-1.256;2023-10-31T07:34:24;99276.84;;;11.01;53.92
62055;BME280;48653;51.742;-1.256;2023-10-31T07:36:50;99276.40;;;11.06;54.12
62055;BME280;48653;51.742;-1.256;2023-10-31T07:39:15;99273.40;;;10.82;54.54
62055;BME280;48653;51.742;-1.256;2023-10-31T07:41:40;99278.20;;;11.06;53.73
62055;BME280;48653;51.742;-1.256;2023-10-31T07:44:06;99278.62;;;10.82;54.45
62055;BME280;48653;51.742;-1.256;2023-10-31T07:46:31;99278.27;;;10.97;54.12
62055;BME280;48653;51.742;-1.256;2023-10-31T07:48:58;99280.31;;;10.52;54.72
62055;BME280;48653;51.742;-1.256;2023-10-31T07:51:21;99276.99;;;11.15;54.46
62055;BME280;48653;51.742;-1.256;2023-10-31T07:53:46;99279.26;;;10.74;55.12
62055;BME280;48653;51.742;-1.256;2023-10-31T07:56:15;99281.68;;;10.76;55.42
62055;BME280;48653;51.742;-1.256;2023-10-31T07:58:36;99285.54;;;11.42;54.86
62055;BME280;48653;51.742;-1.256;2023-10-31T08:01:02;99284.88;;;10.77;55.71
62055;BME280;48653;51.742;-1.256;2023-10-31T08:03:27;99282.19;;;11.06;55.32
62055;BME280;48653;51.742;-1.256;2023-10-31T08:05:52;99287.39;;;10.75;55.97
62055;BME280;48653;51.742;-1.256;2023-10-31T08:08:17;99289.82;;;10.89;55.92
62055;BME280;48653;51.742;-1.256;2023-10-31T08:10:43;99292.08;;;11.36;54.45
62055;BME280;48653;51.742;-1.256;2023-10-31T08:13:08;99299.84;;;10.84;56.24
62055;BME280;48653;51.742;-1.256;2023-10-31T08:15:34;99299.65;;;10.91;55.38
62055;BME280;48653;51.742;-1.256;2023-10-31T08:18:00;99295.05;;;11.08;55.32
62055;BME280;48653;51.742;-1.256;2023-10-31T08:20:25;99303.63;;;11.27;54.79
62055;BME280;48653;51.742;-1.256;2023-10-31T08:22:51;99305.10;;;11.05;55.09
62055;BME280;48653;51.742;-1.256;2023-10-31T08:25:16;99307.24;;;10.97;55.21
62055;BME280;48653;51.742;-1.256;2023-10-31T08:27:41;99308.84;;;10.90;55.22
62055;BME280;48653;51.742;-1.256;2023-10-31T08:30:07;99315.19;;;11.25;54.80
62055;BME280;48653;51.742;-1.256;2023-10-31T08:32:31;99314.44;;;10.97;55.94
62055;BME280;48653;51.742;-1.256;2023-10-31T08:37:22;99311.68;;;10.97;55.42
62055;BME280;48653;51.742;-1.256;2023-10-31T08:39:48;99307.41;;;11.09;55.51
62055;BME280;48653;51.742;-1.256;2023-10-31T08:42:13;99307.88;;;11.23;54.61
62055;BME280;48653;51.742;-1.256;2023-10-31T08:44:40;99312.12;;;11.46;54.45
62055;BME280;48653;51.742;-1.256;2023-10-31T08:47:04;99313.69;;;12.59;52.83
62055;BME280;48653;51.742;-1.256;2023-10-31T08:49:29;99318.79;;;11.77;54.14
62055;BME280;48653;51.742;-1.256;2023-10-31T08:51:54;99316.23;;;11.92;53.81
62055;BME280;48653;51.742;-1.256;2023-10-31T08:54:20;99312.06;;;11.77;53.21
62055;BME280;48653;51.742;-1.256;2023-10-31T08:56:45;99319.36;;;11.90;53.32
62055;BME280;48653;51.742;-1.256;2023-10-31T08:59:10;99317.10;;;11.75;55.00
62055;BME280;48653;51.742;-1.256;2023-10-31T09:01:35;99314.00;;;12.49;53.77
62055;BME280;48653;51.742;-1.256;2023-10-31T09:04:01;99309.68;;;12.59;53.64
62055;BME280;48653;51.742;-1.256;2023-10-31T09:06:26;99307.22;;;12.07;54.24
62055;BME280;48653;51.742;-1.256;2023-10-31T09:08:51;99303.40;;;13.05;51.39
62055;BME280;48653;51.742;-1.256;2023-10-31T09:11:17;99304.20;;;12.43;53.12
62055;BME280;48653;51.742;-1.256;2023-10-31T09:13:43;99304.91;;;12.68;53.07
62055;BME280;48653;51.742;-1.256;2023-10-31T09:16:08;99302.52;;;12.69;52.83
62055;BME280;48653;51.742;-1.256;2023-10-31T09:18:33;99303.81;;;12.63;52.88
62055;BME280;48653;51.742;-1.256;2023-10-31T09:20:58;99307.67;;;13.29;51.81
62055;BME280;48653;51.742;-1.256;2023-10-31T09:23:23;99307.74;;;14.41;51.23
62055;BME280;48653;51.742;-1.256;2023-10-31T09:25:48;99307.17;;;15.66;48.37
62055;BME280;48653;51.742;-1.256;2023-10-31T09:28:13;99306.60;;;16.72;46.26
62055;BME280;48653;51.742;-1.256;2023-10-31T09:30:38;99312.26;;;16.17;46.22
62055;BME280;48653;51.742;-1.256;2023-10-31T09:33:04;99312.97;;;17.11;43.87
62055;BME280;48653;51.742;-1.256;2023-10-31T09:35:29;99313.00;;;17.73;42.45
62055;BME280;48653;51.742;-1.256;2023-10-31T09:37:54;99314.48;;;18.16;42.62
62055;BME280;48653;51.742;-1.256;2023-10-31T09:40:19;99320.43;;;18.73;40.96
62055;BME280;48653;51.742;-1.256;2023-10-31T09:42:44;99318.80;;;18.24;41.66
62055;BME280;48653;51.742;-1.256;2023-10-31T09:45:09;99320.98;;;19.36;40.76
62055;BME280;48653;51.742;-1.256;2023-10-31T09:47:34;99318.05;;;20.03;39.87
62055;BME280;48653;51.742;-1.256;2023-10-31T09:49:59;99316.40;;;18.99;39.82
62055;BME280;48653;51.742;-1.256;2023-10-31T09:52:25;99316.11;;;19.25;40.14
62055;BME280;48653;51.742;-1.256;2023-10-31T09:54:49;99316.71;;;18.27;40.00
62055;BME280;48653;51.742;-1.256;2023-10-31T09:57:14;99317.77;;;17.84;41.41
62055;BME280;48653;51.742;-1.256;2023-10-31T09:59:39;99319.24;;;18.12;40.84
62055;BME280;48653;51.742;-1.256;2023-10-31T10:02:04;99316.84;;;16.87;43.44
62055;BME280;48653;51.742;-1.256;2023-10-31T10:04:30;99317.26;;;17.55;42.41
62055;BME280;48653;51.742;-1.256;2023-10-31T10:06:59;99317.30;;;17.06;43.42
62055;BME280;48653;51.742;-1.256;2023-10-31T10:09:21;99322.34;;;15.80;44.76
62055;BME280;48653;51.742;-1.256;2023-10-31T10:11:44;99323.85;;;16.30;45.05
62055;BME280;48653;51.742;-1.256;2023-10-31T10:14:11;99328.02;;;17.46;44.26
62055;BME280;48653;51.742;-1.256;2023-10-31T10:16:34;99332.34;;;16.33;45.76
62055;BME280;48653;51.742;-1.256;2023-10-31T10:21:24;99330.40;;;16.28;46.83
62055;BME280;48653;51.742;-1.256;2023-10-31T10:23:51;99333.33;;;16.83;46.65
62055;BME280;48653;51.742;-1.256;2023-10-31T10:26:15;99343.86;;;16.67;46.00
62055;BME280;48653;51.742;-1.256;2023-10-31T10:28:39;99343.74;;;16.64;46.22
62055;BME280;48653;51.742;-1.256;2023-10-31T10:31:05;99344.30;;;17.34;45.47
62055;BME280;48653;51.742;-1.256;2023-10-31T10:33:30;99350.59;;;16.57;46.23
62055;BME280;48653;51.742;-1.256;2023-10-31T10:35:55;99353.03;;;15.82;47.39
62055;BME280;48653;51.742;-1.256;2023-10-31T10:38:20;99355.83;;;15.64;48.84
62055;BME280;48653;51.742;-1.256;2023-10-31T10:40:46;99351.15;;;16.32;47.88
62055;BME280;48653;51.742;-1.256;2023-10-31T10:43:13;99351.77;;;15.97;48.31
62055;BME280;48653;51.742;-1.256;2023-10-31T10:45:37;99351.96;;;16.75;46.56
62055;BME280;48653;51.742;-1.256;2023-10-31T10:48:05;99353.63;;;16.53;46.84
62055;BME280;48653;51.742;-1.256;2023-10-31T10:50:27;99351.56;;;15.77;47.78
62055;BME280;48653;51.742;-1.256;2023-10-31T10:52:58;99351.54;;;16.00;47.85
62055;BME280;48653;51.742;-1.256;2023-10-31T10:55:21;99356.66;;;16.21;47.73
62055;BME280;48653;51.742;-1.256;2023-10-31T10:57:47;99355.30;;;16.14;47.62
62055;BME280;48653;51.742;-1.256;2023-10-31T11:00:07;99361.29;;;15.89;48.16
62055;BME280;48653;51.742;-1.256;2023-10-31T11:02:32;99363.59;;;15.33;48.92
62055;BME280;48653;51.742;-1.256;2023-10-31T11:04:56;99363.04;;;14.84;51.28
62055;BME280;48653;51.742;-1.256;2023-10-31T11:07:21;99362.79;;;15.81;49.61
62055;BME280;48653;51.742;-1.256;2023-10-31T11:09:47;99364.56;;;14.93;50.35
62055;BME280;48653;51.742;-1.256;2023-10-31T11:12:12;99363.63;;;15.61;49.94
62055;BME280;48653;51.742;-1.256;2023-10-31T11:14:37;99365.68;;;15.03;50.39
62055;BME280;48653;51.742;-1.256;2023-10-31T11:17:06;99364.78;;;15.23;49.91
62055;BME280;48653;51.742;-1.256;2023-10-31T11:19:27;99364.56;;;15.73;49.76
62055;BME280;48653;51.742;-1.256;2023-10-31T11:21:55;99370.41;;;15.07;50.32
62055;BME280;48653;51.742;-1.256;2023-10-31T11:24:16;99371.10;;;14.32;51.91
62055;BME280;48653;51.742;-1.256;2023-10-31T11:26:50;99370.68;;;13.55;53.42
62055;BME280;48653;51.742;-1.256;2023-10-31T11:29:06;99372.29;;;14.37;52.23
62055;BME280;48653;51.742;-1.256;2023-10-31T11:31:31;99371.14;;;14.92;51.15
62055;BME280;48653;51.742;-1.256;2023-10-31T11:33:56;99369.70;;;14.19;53.53
62055;BME280;48653;51.742;-1.256;2023-10-31T11:36:22;99368.90;;;14.68;52.04
62055;BME280;48653;51.742;-1.256;2023-10-31T11:38:46;99367.17;;;14.56;53.02
62055;BME280;48653;51.742;-1.256;2023-10-31T11:41:11;99365.15;;;14.51;52.54
62055;BME280;48653;51.742;-1.256;2023-10-31T11:46:02;99367.36;;;15.61;51.46
62055;BME280;48653;51.742;-1.256;2023-10-31T11:50:51;99360.93;;;15.94;48.43
62055;BME280;48653;51.742;-1.256;2023-10-31T11:53:16;99358.53;;;16.03;49.48
62055;BME280;48653;51.742;-1.256;2023-10-31T11:55:43;99357.26;;;17.12;48.23
62055;BME280;48653;51.742;-1.256;2023-10-31T11:58:13;99356.46;;;16.63;47.88
62055;BME280;48653;51.742;-1.256;2023-10-31T12:00:32;99365.10;;;16.37;47.56
62055;BME280;48653;51.742;-1.256;2023-10-31T12:02:59;99359.76;;;16.89;46.92
62055;BME280;48653;51.742;-1.256;2023-10-31T12:05:21;99368.03;;;17.27;47.07
62055;BME280;48653;51.742;-1.256;2023-10-31T12:07:46;99369.24;;;16.78;46.16
62055;BME280;48653;51.742;-1.256;2023-10-31T12:10:20;99367.41;;;15.68;46.74
62055;BME280;48653;51.742;-1.256;2023-10-31T12:12:38;99371.07;;;16.42;46.92
62055;BME280;48653;51.742;-1.256;2023-10-31T12:15:05;99370.13;;;16.17;46.50
62055;BME280;48653;51.742;-1.256;2023-10-31T12:17:29;99374.69;;;15.90;48.34
62055;BME280;48653;51.742;-1.256;2023-10-31T12:19:55;99379.49;;;15.32;48.63
62055;BME280;48653;51.742;-1.256;2023-10-31T12:22:19;99380.05;;;15.33;49.15
62055;BME280;48653;51.742;-1.256;2023-10-31T12:24:44;99372.74;;;16.46;47.78
62055;BME280;48653;51.742;-1.256;2023-10-31T12:27:09;99369.95;;;15.45;48.05
62055;BME280;48653;51.742;-1.256;2023-10-31T12:29:34;99370.35;;;16.20;47.50
62055;BME280;48653;51.742;-1.256;2023-10-31T12:31:59;99372.35;;;16.28;47.50
62055;BME280;48653;51.742;-1.256;2023-10-31T12:34:25;99375.58;;;16.19;48.15
62055;BME280;48653;51.742;-1.256;2023-10-31T12:36:51;99382.83;;;16.01;47.29
62055;BME280;48653;51.742;-1.256;2023-10-31T12:39:16;99391.75;;;15.45;48.59
62055;BME280;48653;51.742;-1.256;2023-10-31T12:41:41;99387.39;;;15.93;48.01
62055;BME280;48653;51.742;-1.256;2023-10-31T12:44:05;99389.16;;;15.75;48.45
62055;BME280;48653;51.742;-1.256;2023-10-31T12:46:31;99388.30;;;16.04;47.40
62055;BME280;48653;51.742;-1.256;2023-10-31T12:48:55;99387.13;;;15.84;48.24
62055;BME280;48653;51.742;-1.256;2023-10-31T12:51:20;99387.98;;;15.53;48.23
62055;BME280;48653;51.742;-1.256;2023-10-31T12:53:48;99387.72;;;15.32;48.54
62055;BME280;48653;51.742;-1.256;2023-10-31T12:56:10;99385.58;;;15.82;48.17